Terminal Aerodrome Forecast
Issued by NWS Portland, OR

Home | Current Version | Previous Version | Text Only | Print | Product List | Glossary On
Versions: 1 2 3 4 5 6 7 8 9 10 11 12 13 14 15 16 17 18 19 20 21 22 23 24 25 26 27 28 29 30 31 32 33 34 35 36 37 38 39 40 41
000
FTUS46 KPQR 020526
TAFAST
TAF
KAST 020526Z 0206/0306 29005KT P6SM -SHRA SCT025 BKN050
     FM021400 VRB03KT P6SM BKN035
     FM021800 26007KT P6SM BKN050
     FM030400 19005KT P6SM BKN050=

USA.gov is the U.S. government's official web portal to all federal, state and local government web resources and services.